sensor_id;sensor_type;location;lat;lon;timestamp;temperature;humidity
7362;DHT22;3721;44.490;11.220;2022-10-16T00:01:19;19.30;93.90
7362;DHT22;3721;44.490;11.220;2022-10-16T00:03:46;19.30;94.00
7362;DHT22;3721;44.490;11.220;2022-10-16T00:06:13;19.30;94.10
7362;DHT22;3721;44.490;11.220;2022-10-16T00:08:40;19.30;94.10
7362;DHT22;3721;44.490;11.220;2022-10-16T00:11:12;19.30;94.10
7362;DHT22;3721;44.490;11.220;2022-10-16T00:13:40;19.20;94.10
7362;DHT22;3721;44.490;11.220;2022-10-16T00:16:07;19.20;94.10
7362;DHT22;3721;44.490;11.220;2022-10-16T00:18:33;19.20;94.20
7362;DHT22;3721;44.490;11.220;2022-10-16T00:21:14;19.20;94.20
7362;DHT22;3721;44.490;11.220;2022-10-16T00:23:40;19.20;94.20
7362;DHT22;3721;44.490;11.220;2022-10-16T00:26:11;19.30;94.30
7362;DHT22;3721;44.490;11.220;2022-10-16T00:28:38;19.20;94.30
7362;DHT22;3721;44.490;11.220;2022-10-16T00:31:05;19.30;94.40
7362;DHT22;3721;44.490;11.220;2022-10-16T00:33:31;19.20;94.40
7362;DHT22;3721;44.490;11.220;2022-10-16T00:36:01;19.30;94.40
7362;DHT22;3721;44.490;11.220;2022-10-16T00:38:27;19.20;94.30
7362;DHT22;3721;44.490;11.220;2022-10-16T00:40:53;19.20;94.40
7362;DHT22;3721;44.490;11.220;2022-10-16T00:46:22;19.20;94.40
7362;DHT22;3721;44.490;11.220;2022-10-16T00:49:34;19.20;94.30
7362;DHT22;3721;44.490;11.220;2022-10-16T00:51:43;19.20;94.40
7362;DHT22;3721;44.490;11.220;2022-10-16T00:54:14;19.20;94.40
7362;DHT22;3721;44.490;11.220;2022-10-16T00:56:41;19.20;94.50
7362;DHT22;3721;44.490;11.220;2022-10-16T00:59:33;19.20;94.50
7362;DHT22;3721;44.490;11.220;2022-10-16T01:01:59;19.20;94.50
7362;DHT22;3721;44.490;11.220;2022-10-16T01:04:25;19.20;94.60
7362;DHT22;3721;44.490;11.220;2022-10-16T01:09:28;19.20;94.50
7362;DHT22;3721;44.490;11.220;2022-10-16T01:12:09;19.10;94.50
7362;DHT22;3721;44.490;11.220;2022-10-16T01:17:13;19.10;94.60
7362;DHT22;3721;44.490;11.220;2022-10-16T01:20:08;19.10;94.60
7362;DHT22;3721;44.490;11.220;2022-10-16T01:25:15;19.10;94.60
7362;DHT22;3721;44.490;11.220;2022-10-16T01:27:43;19.10;94.70
7362;DHT22;3721;44.490;11.220;2022-10-16T01:30:18;19.10;94.60
7362;DHT22;3721;44.490;11.220;2022-10-16T01:32:52;19.10;94.70
7362;DHT22;3721;44.490;11.220;2022-10-16T01:35:39;19.10;94.70
7362;DHT22;3721;44.490;11.220;2022-10-16T01:38:15;19.10;94.70
7362;DHT22;3721;44.490;11.220;2022-10-16T01:40:46;19.10;94.70
7362;DHT22;3721;44.490;11.220;2022-10-16T01:43:22;19.10;94.80
7362;DHT22;3721;44.490;11.220;2022-10-16T01:45:48;19.10;94.80
7362;DHT22;3721;44.490;11.220;2022-10-16T01:48:18;19.10;94.70
7362;DHT22;3721;44.490;11.220;2022-10-16T01:50:54;19.10;94.80
7362;DHT22;3721;44.490;11.220;2022-10-16T01:53:21;19.10;94.70
7362;DHT22;3721;44.490;11.220;2022-10-16T01:55:48;19.10;94.70
7362;DHT22;3721;44.490;11.220;2022-10-16T01:58:15;19.10;94.80
7362;DHT22;3721;44.490;11.220;2022-10-16T02:00:44;19.10;94.90
7362;DHT22;3721;44.490;11.220;2022-10-16T02:03:13;19.10;94.90
7362;DHT22;3721;44.490;11.220;2022-10-16T02:08:12;19.20;94.90
7362;DHT22;3721;44.490;11.220;2022-10-16T02:10:39;19.20;94.90
7362;DHT22;3721;44.490;11.220;2022-10-16T02:13:15;19.20;94.90
7362;DHT22;3721;44.490;11.220;2022-10-16T02:15:42;19.20;94.90
7362;DHT22;3721;44.490;11.220;2022-10-16T02:18:09;19.30;95.00
7362;DHT22;3721;44.490;11.220;2022-10-16T02:20:47;19.30;95.00
7362;DHT22;3721;44.490;11.220;2022-10-16T02:23:19;19.30;94.90
7362;DHT22;3721;44.490;11.220;2022-10-16T02:25:47;19.30;94.90
7362;DHT22;3721;44.490;11.220;2022-10-16T02:28:17;19.30;94.90
7362;DHT22;3721;44.490;11.220;2022-10-16T02:30:48;19.30;94.90
7362;DHT22;3721;44.490;11.220;2022-10-16T02:33:16;19.30;94.90
7362;DHT22;3721;44.490;11.220;2022-10-16T02:35:44;19.30;94.90
7362;DHT22;3721;44.490;11.220;2022-10-16T02:38:12;19.30;94.80
7362;DHT22;3721;44.490;11.220;2022-10-16T02:40:39;19.20;94.80
7362;DHT22;3721;44.490;11.220;2022-10-16T02:43:06;19.20;94.80
7362;DHT22;3721;44.490;11.220;2022-10-16T02:45:32;19.20;94.80
7362;DHT22;3721;44.490;11.220;2022-10-16T02:47:58;19.20;94.90
7362;DHT22;3721;44.490;11.220;2022-10-16T02:50:24;19.10;94.90
7362;DHT22;3721;44.490;11.220;2022-10-16T02:52:50;19.10;94.90
7362;DHT22;3721;44.490;11.220;2022-10-16T02:55:16;19.10;95.00
7362;DHT22;3721;44.490;11.220;2022-10-16T02:57:42;19.10;95.10
7362;DHT22;3721;44.490;11.220;2022-10-16T03:00:10;19.10;95.10
7362;DHT22;3721;44.490;11.220;2022-10-16T03:02:37;19.10;95.10
7362;DHT22;3721;44.490;11.220;2022-10-16T03:05:03;19.00;95.10
7362;DHT22;3721;44.490;11.220;2022-10-16T03:07:29;19.00;95.10
7362;DHT22;3721;44.490;11.220;2022-10-16T03:09:55;19.00;95.10
7362;DHT22;3721;44.490;11.220;2022-10-16T03:12:21;19.00;95.10
7362;DHT22;3721;44.490;11.220;2022-10-16T03:14:47;18.90;95.20
7362;DHT22;3721;44.490;11.220;2022-10-16T03:17:12;18.90;95.20
7362;DHT22;3721;44.490;11.220;2022-10-16T03:19:39;18.90;95.20
7362;DHT22;3721;44.490;11.220;2022-10-16T03:22:04;18.90;95.20
7362;DHT22;3721;44.490;11.220;2022-10-16T03:24:30;18.90;95.20
7362;DHT22;3721;44.490;11.220;2022-10-16T03:26:56;18.90;95.20
7362;DHT22;3721;44.490;11.220;2022-10-16T03:29:22;18.90;95.10
7362;DHT22;3721;44.490;11.220;2022-10-16T03:31:48;18.90;95.10
7362;DHT22;3721;44.490;11.220;2022-10-16T03:34:15;18.80;95.10
7362;DHT22;3721;44.490;11.220;2022-10-16T03:36:41;18.80;95.10
7362;DHT22;3721;44.490;11.220;2022-10-16T03:39:06;18.80;95.10
7362;DHT22;3721;44.490;11.220;2022-10-16T03:41:32;18.80;95.10
7362;DHT22;3721;44.490;11.220;2022-10-16T03:43:58;18.80;95.10
7362;DHT22;3721;44.490;11.220;2022-10-16T03:46:23;18.80;95.10
7362;DHT22;3721;44.490;11.220;2022-10-16T03:48:49;18.80;95.10
7362;DHT22;3721;44.490;11.220;2022-10-16T03:51:15;18.70;95.10
7362;DHT22;3721;44.490;11.220;2022-10-16T03:53:41;18.70;95.10
7362;DHT22;3721;44.490;11.220;2022-10-16T03:56:06;18.70;95.20
7362;DHT22;3721;44.490;11.220;2022-10-16T03:58:32;18.70;95.20
7362;DHT22;3721;44.490;11.220;2022-10-16T04:00:58;18.70;95.20
7362;DHT22;3721;44.490;11.220;2022-10-16T04:03:24;18.60;95.20
7362;DHT22;3721;44.490;11.220;2022-10-16T04:05:50;18.70;95.30
7362;DHT22;3721;44.490;11.220;2022-10-16T04:08:16;18.70;95.30
7362;DHT22;3721;44.490;11.220;2022-10-16T04:10:45;18.70;95.30
7362;DHT22;3721;44.490;11.220;2022-10-16T04:13:11;18.70;95.30
7362;DHT22;3721;44.490;11.220;2022-10-16T04:15:37;18.70;95.30
7362;DHT22;3721;44.490;11.220;2022-10-16T04:18:04;18.60;95.30
7362;DHT22;3721;44.490;11.220;2022-10-16T04:20:30;18.60;95.30
7362;DHT22;3721;44.490;11.220;2022-10-16T04:22:56;18.60;95.30
7362;DHT22;3721;44.490;11.220;2022-10-16T04:25:22;18.60;95.30
7362;DHT22;3721;44.490;11.220;2022-10-16T04:27:47;18.60;95.30
7362;DHT22;3721;44.490;11.220;2022-10-16T04:30:13;18.60;95.30
7362;DHT22;3721;44.490;11.220;2022-10-16T04:32:40;18.60;95.30
7362;DHT22;3721;44.490;11.220;2022-10-16T04:35:07;18.60;95.30
7362;DHT22;3721;44.490;11.220;2022-10-16T04:37:33;18.60;95.30
7362;DHT22;3721;44.490;11.220;2022-10-16T04:39:59;18.60;95.30
7362;DHT22;3721;44.490;11.220;2022-10-16T04:42:24;18.50;95.20
7362;DHT22;3721;44.490;11.220;2022-10-16T04:44:50;18.50;95.20
7362;DHT22;3721;44.490;11.220;2022-10-16T04:47:16;18.50;95.20
7362;DHT22;3721;44.490;11.220;2022-10-16T04:49:41;18.40;95.20
7362;DHT22;3721;44.490;11.220;2022-10-16T04:52:07;18.30;95.20
7362;DHT22;3721;44.490;11.220;2022-10-16T04:54:34;18.30;95.30
7362;DHT22;3721;44.490;11.220;2022-10-16T04:57:00;18.30;95.30
7362;DHT22;3721;44.490;11.220;2022-10-16T04:59:26;18.30;95.60
7362;DHT22;3721;44.490;11.220;2022-10-16T05:01:52;18.30;96.90
7362;DHT22;3721;44.490;11.220;2022-10-16T05:04:17;18.20;97.80
7362;DHT22;3721;44.490;11.220;2022-10-16T05:06:43;18.20;97.80
7362;DHT22;3721;44.490;11.220;2022-10-16T05:09:09;18.20;97.20
7362;DHT22;3721;44.490;11.220;2022-10-16T05:11:35;18.20;97.70
7362;DHT22;3721;44.490;11.220;2022-10-16T05:14:01;18.20;98.60
7362;DHT22;3721;44.490;11.220;2022-10-16T05:16:27;18.10;99.80
7362;DHT22;3721;44.490;11.220;2022-10-16T05:18:53;18.10;94.80
7362;DHT22;3721;44.490;11.220;2022-10-16T05:21:19;18.10;97.10
7362;DHT22;3721;44.490;11.220;2022-10-16T05:23:45;18.00;96.70
7362;DHT22;3721;44.490;11.220;2022-10-16T05:26:11;18.00;97.10
7362;DHT22;3721;44.490;11.220;2022-10-16T05:28:36;17.90;96.50
7362;DHT22;3721;44.490;11.220;2022-10-16T05:31:07;17.90;96.60
7362;DHT22;3721;44.490;11.220;2022-10-16T05:33:33;17.90;96.50
7362;DHT22;3721;44.490;11.220;2022-10-16T05:36:04;17.90;96.30
7362;DHT22;3721;44.490;11.220;2022-10-16T05:38:30;17.90;96.20
7362;DHT22;3721;44.490;11.220;2022-10-16T05:40:55;17.90;96.20
7362;DHT22;3721;44.490;11.220;2022-10-16T05:43:21;17.90;96.10
7362;DHT22;3721;44.490;11.220;2022-10-16T05:46:01;17.90;96.00
7362;DHT22;3721;44.490;11.220;2022-10-16T05:48:28;17.90;95.90
7362;DHT22;3721;44.490;11.220;2022-10-16T05:51:03;17.90;95.70
7362;DHT22;3721;44.490;11.220;2022-10-16T05:53:31;17.90;95.80
7362;DHT22;3721;44.490;11.220;2022-10-16T05:55:57;17.90;95.80
7362;DHT22;3721;44.490;11.220;2022-10-16T05:58:24;17.90;95.80
7362;DHT22;3721;44.490;11.220;2022-10-16T06:03:19;18.00;95.80
7362;DHT22;3721;44.490;11.220;2022-10-16T06:05:45;18.00;95.70
7362;DHT22;3721;44.490;11.220;2022-10-16T06:08:11;18.00;95.60
7362;DHT22;3721;44.490;11.220;2022-10-16T06:10:36;18.00;95.60
7362;DHT22;3721;44.490;11.220;2022-10-16T06:13:02;18.10;95.60
7362;DHT22;3721;44.490;11.220;2022-10-16T06:15:29;18.10;95.60
7362;DHT22;3721;44.490;11.220;2022-10-16T06:17:55;18.00;95.60
7362;DHT22;3721;44.490;11.220;2022-10-16T06:20:20;18.00;95.70
7362;DHT22;3721;44.490;11.220;2022-10-16T06:22:46;18.10;95.70
7362;DHT22;3721;44.490;11.220;2022-10-16T06:25:12;18.10;95.60
7362;DHT22;3721;44.490;11.220;2022-10-16T06:27:39;18.10;95.60
7362;DHT22;3721;44.490;11.220;2022-10-16T06:30:06;18.20;95.50
7362;DHT22;3721;44.490;11.220;2022-10-16T06:32:32;18.20;95.50
7362;DHT22;3721;44.490;11.220;2022-10-16T06:34:58;18.20;95.50
7362;DHT22;3721;44.490;11.220;2022-10-16T06:37:24;18.20;95.50
7362;DHT22;3721;44.490;11.220;2022-10-16T06:39:50;18.20;95.50
7362;DHT22;3721;44.490;11.220;2022-10-16T06:42:18;18.20;95.50
7362;DHT22;3721;44.490;11.220;2022-10-16T06:44:44;18.20;95.60
7362;DHT22;3721;44.490;11.220;2022-10-16T06:47:09;18.20;95.70
7362;DHT22;3721;44.490;11.220;2022-10-16T06:49:35;18.70;96.00
7362;DHT22;3721;44.490;11.220;2022-10-16T06:52:01;18.30;95.80
7362;DHT22;3721;44.490;11.220;2022-10-16T06:54:27;18.30;95.70
7362;DHT22;3721;44.490;11.220;2022-10-16T06:56:54;18.30;95.70
7362;DHT22;3721;44.490;11.220;2022-10-16T06:59:20;18.40;95.70
7362;DHT22;3721;44.490;11.220;2022-10-16T07:01:46;18.40;95.80
7362;DHT22;3721;44.490;11.220;2022-10-16T07:04:12;18.40;95.80
7362;DHT22;3721;44.490;11.220;2022-10-16T07:06:38;18.40;95.80
7362;DHT22;3721;44.490;11.220;2022-10-16T07:09:06;18.40;95.80
7362;DHT22;3721;44.490;11.220;2022-10-16T07:11:33;18.50;96.00
7362;DHT22;3721;44.490;11.220;2022-10-16T07:13:59;18.50;96.00
7362;DHT22;3721;44.490;11.220;2022-10-16T07:16:27;18.50;96.10
7362;DHT22;3721;44.490;11.220;2022-10-16T07:18:57;18.60;96.10
7362;DHT22;3721;44.490;11.220;2022-10-16T07:21:25;18.60;96.20
7362;DHT22;3721;44.490;11.220;2022-10-16T07:23:56;18.70;96.20
7362;DHT22;3721;44.490;11.220;2022-10-16T07:26:22;18.70;96.30
7362;DHT22;3721;44.490;11.220;2022-10-16T07:28:49;18.80;96.30
7362;DHT22;3721;44.490;11.220;2022-10-16T07:31:16;18.80;96.40
7362;DHT22;3721;44.490;11.220;2022-10-16T07:33:43;18.90;96.40
7362;DHT22;3721;44.490;11.220;2022-10-16T07:36:11;18.90;96.30
7362;DHT22;3721;44.490;11.220;2022-10-16T07:38:37;19.00;96.30
7362;DHT22;3721;44.490;11.220;2022-10-16T07:41:09;19.10;96.30
7362;DHT22;3721;44.490;11.220;2022-10-16T07:43:34;19.10;96.20
7362;DHT22;3721;44.490;11.220;2022-10-16T07:46:00;19.20;96.20
7362;DHT22;3721;44.490;11.220;2022-10-16T07:48:28;19.30;96.20
7362;DHT22;3721;44.490;11.220;2022-10-16T07:50:58;19.30;96.20
7362;DHT22;3721;44.490;11.220;2022-10-16T07:53:25;19.40;96.20
7362;DHT22;3721;44.490;11.220;2022-10-16T07:55:51;19.40;96.20
7362;DHT22;3721;44.490;11.220;2022-10-16T07:58:17;19.50;96.20
7362;DHT22;3721;44.490;11.220;2022-10-16T08:00:43;19.60;96.10
7362;DHT22;3721;44.490;11.220;2022-10-16T08:03:08;19.60;96.00
7362;DHT22;3721;44.490;11.220;2022-10-16T08:05:34;19.70;96.00
7362;DHT22;3721;44.490;11.220;2022-10-16T08:08:01;19.80;96.10
7362;DHT22;3721;44.490;11.220;2022-10-16T08:10:28;19.80;96.40
7362;DHT22;3721;44.490;11.220;2022-10-16T08:12:54;19.90;96.50
7362;DHT22;3721;44.490;11.220;2022-10-16T08:15:20;20.00;97.00
7362;DHT22;3721;44.490;11.220;2022-10-16T08:17:58;20.10;97.40
7362;DHT22;3721;44.490;11.220;2022-10-16T08:20:25;20.20;98.60
7362;DHT22;3721;44.490;11.220;2022-10-16T08:22:51;20.30;98.40
7362;DHT22;3721;44.490;11.220;2022-10-16T08:25:16;20.30;99.30
7362;DHT22;3721;44.490;11.220;2022-10-16T08:27:42;20.30;99.50
7362;DHT22;3721;44.490;11.220;2022-10-16T08:30:09;20.40;99.90
7362;DHT22;3721;44.490;11.220;2022-10-16T08:32:34;20.40;99.60
7362;DHT22;3721;44.490;11.220;2022-10-16T08:35:00;20.50;99.90
7362;DHT22;3721;44.490;11.220;2022-10-16T08:37:32;20.60;99.50
7362;DHT22;3721;44.490;11.220;2022-10-16T08:39:58;20.60;99.70
7362;DHT22;3721;44.490;11.220;2022-10-16T08:42:45;20.70;99.60
7362;DHT22;3721;44.490;11.220;2022-10-16T08:51:08;20.80;99.10
7362;DHT22;3721;44.490;11.220;2022-10-16T08:54:05;20.90;99.00
7362;DHT22;3721;44.490;11.220;2022-10-16T08:56:31;20.90;98.60
7362;DHT22;3721;44.490;11.220;2022-10-16T08:58:59;21.00;98.50
7362;DHT22;3721;44.490;11.220;2022-10-16T09:01:37;21.00;98.20
7362;DHT22;3721;44.490;11.220;2022-10-16T09:12:54;21.10;97.70
7362;DHT22;3721;44.490;11.220;2022-10-16T09:15:32;21.20;97.50
7362;DHT22;3721;44.490;11.220;2022-10-16T09:18:23;21.30;97.60
7362;DHT22;3721;44.490;11.220;2022-10-16T09:23:30;21.40;97.30
7362;DHT22;3721;44.490;11.220;2022-10-16T09:25:58;21.40;97.00
7362;DHT22;3721;44.490;11.220;2022-10-16T09:28:24;21.40;97.00
7362;DHT22;3721;44.490;11.220;2022-10-16T09:30:50;21.50;96.90
7362;DHT22;3721;44.490;11.220;2022-10-16T09:33:18;21.50;96.70
7362;DHT22;3721;44.490;11.220;2022-10-16T09:35:49;21.50;96.60
7362;DHT22;3721;44.490;11.220;2022-10-16T09:38:28;21.60;96.50
7362;DHT22;3721;44.490;11.220;2022-10-16T09:40:55;21.60;96.50
7362;DHT22;3721;44.490;11.220;2022-10-16T09:43:24;21.70;96.40
7362;DHT22;3721;44.490;11.220;2022-10-16T09:46:09;21.70;96.40
7362;DHT22;3721;44.490;11.220;2022-10-16T09:48:50;21.70;96.40
7362;DHT22;3721;44.490;11.220;2022-10-16T09:51:21;21.80;96.30
7362;DHT22;3721;44.490;11.220;2022-10-16T09:53:53;21.80;96.20
7362;DHT22;3721;44.490;11.220;2022-10-16T09:56:24;21.80;96.10
7362;DHT22;3721;44.490;11.220;2022-10-16T09:58:53;21.90;95.90
7362;DHT22;3721;44.490;11.220;2022-10-16T10:01:19;21.90;95.90
7362;DHT22;3721;44.490;11.220;2022-10-16T10:03:46;21.90;95.80
7362;DHT22;3721;44.490;11.220;2022-10-16T10:06:31;22.00;95.60
7362;DHT22;3721;44.490;11.220;2022-10-16T10:09:25;22.00;95.50
7362;DHT22;3721;44.490;11.220;2022-10-16T10:11:57;22.00;95.40
7362;DHT22;3721;44.490;11.220;2022-10-16T10:16:51;22.10;95.30
7362;DHT22;3721;44.490;11.220;2022-10-16T10:19:18;22.10;95.70
7362;DHT22;3721;44.490;11.220;2022-10-16T10:21:45;22.10;95.40
7362;DHT22;3721;44.490;11.220;2022-10-16T10:24:12;22.20;95.10
7362;DHT22;3721;44.490;11.220;2022-10-16T10:26:44;22.20;95.00
7362;DHT22;3721;44.490;11.220;2022-10-16T10:32:56;22.20;94.70
7362;DHT22;3721;44.490;11.220;2022-10-16T10:35:22;22.30;94.20
7362;DHT22;3721;44.490;11.220;2022-10-16T10:38:34;22.30;94.30
7362;DHT22;3721;44.490;11.220;2022-10-16T10:46:57;22.40;94.20
7362;DHT22;3721;44.490;11.220;2022-10-16T10:58:02;22.50;94.20
7362;DHT22;3721;44.490;11.220;2022-10-16T11:00:42;22.50;94.10
7362;DHT22;3721;44.490;11.220;2022-10-16T11:06:40;22.60;93.80
7362;DHT22;3721;44.490;11.220;2022-10-16T11:09:25;22.60;93.80
7362;DHT22;3721;44.490;11.220;2022-10-16T11:14:55;22.70;93.70
7362;DHT22;3721;44.490;11.220;2022-10-16T11:17:30;22.70;93.60
7362;DHT22;3721;44.490;11.220;2022-10-16T11:20:05;22.80;93.60
7362;DHT22;3721;44.490;11.220;2022-10-16T11:22:42;22.80;93.70
7362;DHT22;3721;44.490;11.220;2022-10-16T11:25:28;22.80;94.00
7362;DHT22;3721;44.490;11.220;2022-10-16T11:30:53;22.80;93.60
7362;DHT22;3721;44.490;11.220;2022-10-16T11:33:45;22.90;93.50
7362;DHT22;3721;44.490;11.220;2022-10-16T11:36:17;22.90;93.30
7362;DHT22;3721;44.490;11.220;2022-10-16T11:49:31;23.00;93.10
7362;DHT22;3721;44.490;11.220;2022-10-16T11:52:20;23.00;92.90
7362;DHT22;3721;44.490;11.220;2022-10-16T11:55:20;23.10;93.00
7362;DHT22;3721;44.490;11.220;2022-10-16T11:57:51;23.10;93.00
7362;DHT22;3721;44.490;11.220;2022-10-16T12:02:50;23.10;92.80
7362;DHT22;3721;44.490;11.220;2022-10-16T12:08:08;23.10;92.60
7362;DHT22;3721;44.490;11.220;2022-10-16T12:10:35;23.20;92.70
7362;DHT22;3721;44.490;11.220;2022-10-16T12:13:05;23.20;92.00
7362;DHT22;3721;44.490;11.220;2022-10-16T12:15:50;23.20;92.00
7362;DHT22;3721;44.490;11.220;2022-10-16T12:18:23;23.20;92.10
7362;DHT22;3721;44.490;11.220;2022-10-16T12:20:59;23.20;92.10
7362;DHT22;3721;44.490;11.220;2022-10-16T12:23:31;23.30;92.20
7362;DHT22;3721;44.490;11.220;2022-10-16T12:26:01;23.30;92.20
7362;DHT22;3721;44.490;11.220;2022-10-16T12:28:30;23.30;92.20
7362;DHT22;3721;44.490;11.220;2022-10-16T12:31:01;23.30;92.10
7362;DHT22;3721;44.490;11.220;2022-10-16T12:33:33;23.30;92.10
7362;DHT22;3721;44.490;11.220;2022-10-16T12:36:02;23.30;92.20
7362;DHT22;3721;44.490;11.220;2022-10-16T12:38:49;23.40;92.20
7362;DHT22;3721;44.490;11.220;2022-10-16T12:43:53;23.40;92.00
7362;DHT22;3721;44.490;11.220;2022-10-16T12:46:24;23.40;92.10
7362;DHT22;3721;44.490;11.220;2022-10-16T12:48:50;23.50;92.00
7362;DHT22;3721;44.490;11.220;2022-10-16T12:54:46;23.50;91.70
7362;DHT22;3721;44.490;11.220;2022-10-16T12:57:47;23.50;91.30
7362;DHT22;3721;44.490;11.220;2022-10-16T13:06:05;23.60;91.40
7362;DHT22;3721;44.490;11.220;2022-10-16T13:11:24;23.60;91.40
7362;DHT22;3721;44.490;11.220;2022-10-16T13:14:22;23.60;91.30
7362;DHT22;3721;44.490;11.220;2022-10-16T13:25:24;23.70;91.20
7362;DHT22;3721;44.490;11.220;2022-10-16T13:28:02;23.70;91.10
7362;DHT22;3721;44.490;11.220;2022-10-16T13:30:41;23.70;91.10
7362;DHT22;3721;44.490;11.220;2022-10-16T13:33:14;23.70;91.10
7362;DHT22;3721;44.490;11.220;2022-10-16T13:35:49;23.60;91.30
7362;DHT22;3721;44.490;11.220;2022-10-16T13:38:36;23.60;91.10
7362;DHT22;3721;44.490;11.220;2022-10-16T13:41:13;23.60;91.20
7362;DHT22;3721;44.490;11.220;2022-10-16T13:43:40;23.60;91.10
7362;DHT22;3721;44.490;11.220;2022-10-16T13:48:37;23.70;91.10
7362;DHT22;3721;44.490;11.220;2022-10-16T13:53:33;23.70;91.10
7362;DHT22;3721;44.490;11.220;2022-10-16T13:56:01;23.70;91.00
7362;DHT22;3721;44.490;11.220;2022-10-16T13:58:27;23.70;90.90
7362;DHT22;3721;44.490;11.220;2022-10-16T14:00:58;23.80;90.80
7362;DHT22;3721;44.490;11.220;2022-10-16T14:03:25;23.80;90.80
7362;DHT22;3721;44.490;11.220;2022-10-16T14:05:59;23.80;90.70
7362;DHT22;3721;44.490;11.220;2022-10-16T14:08:27;23.80;90.70
7362;DHT22;3721;44.490;11.220;2022-10-16T14:10:59;23.80;90.60
7362;DHT22;3721;44.490;11.220;2022-10-16T14:13:32;23.80;90.60
7362;DHT22;3721;44.490;11.220;2022-10-16T14:16:03;23.80;90.60
7362;DHT22;3721;44.490;11.220;2022-10-16T14:18:30;23.70;90.40
7362;DHT22;3721;44.490;11.220;2022-10-16T14:21:06;23.70;90.40
7362;DHT22;3721;44.490;11.220;2022-10-16T14:23:36;23.70;90.20
7362;DHT22;3721;44.490;11.220;2022-10-16T14:28:35;23.70;90.40
7362;DHT22;3721;44.490;11.220;2022-10-16T14:31:01;23.70;90.50
7362;DHT22;3721;44.490;11.220;2022-10-16T14:36:12;23.70;90.50
7362;DHT22;3721;44.490;11.220;2022-10-16T14:38:40;23.70;90.50
7362;DHT22;3721;44.490;11.220;2022-10-16T14:41:07;23.70;90.50
7362;DHT22;3721;44.490;11.220;2022-10-16T14:43:41;23.80;90.60
7362;DHT22;3721;44.490;11.220;2022-10-16T14:46:16;23.80;90.50
7362;DHT22;3721;44.490;11.220;2022-10-16T14:48:43;23.80;90.50
7362;DHT22;3721;44.490;11.220;2022-10-16T14:51:15;23.90;90.50
7362;DHT22;3721;44.490;11.220;2022-10-16T14:53:41;23.90;90.40
7362;DHT22;3721;44.490;11.220;2022-10-16T14:56:19;23.90;90.30
7362;DHT22;3721;44.490;11.220;2022-10-16T14:58:46;24.00;90.30
7362;DHT22;3721;44.490;11.220;2022-10-16T15:01:12;24.00;90.20
7362;DHT22;3721;44.490;11.220;2022-10-16T15:03:38;24.00;90.20
7362;DHT22;3721;44.490;11.220;2022-10-16T15:06:15;24.00;90.50
7362;DHT22;3721;44.490;11.220;2022-10-16T15:08:42;24.00;90.10
7362;DHT22;3721;44.490;11.220;2022-10-16T15:11:18;24.00;90.20
7362;DHT22;3721;44.490;11.220;2022-10-16T15:13:45;24.00;90.10
7362;DHT22;3721;44.490;11.220;2022-10-16T15:16:12;24.00;90.10
7362;DHT22;3721;44.490;11.220;2022-10-16T15:18:38;24.00;90.00
7362;DHT22;3721;44.490;11.220;2022-10-16T15:21:04;24.00;90.00
7362;DHT22;3721;44.490;11.220;2022-10-16T15:23:30;24.00;89.80
7362;DHT22;3721;44.490;11.220;2022-10-16T15:25:56;24.00;90.00
7362;DHT22;3721;44.490;11.220;2022-10-16T15:28:23;24.00;89.70
7362;DHT22;3721;44.490;11.220;2022-10-16T15:30:51;24.00;89.80
7362;DHT22;3721;44.490;11.220;2022-10-16T15:33:20;24.00;89.80
7362;DHT22;3721;44.490;11.220;2022-10-16T15:35:50;24.20;90.00
7362;DHT22;3721;44.490;11.220;2022-10-16T15:38:18;24.00;89.80
7362;DHT22;3721;44.490;11.220;2022-10-16T15:40:45;24.00;89.80
7362;DHT22;3721;44.490;11.220;2022-10-16T15:43:11;24.00;89.80
7362;DHT22;3721;44.490;11.220;2022-10-16T15:45:37;23.90;89.80
7362;DHT22;3721;44.490;11.220;2022-10-16T15:48:03;23.90;89.60
7362;DHT22;3721;44.490;11.220;2022-10-16T15:50:30;23.90;89.60
7362;DHT22;3721;44.490;11.220;2022-10-16T15:52:56;23.90;89.60
7362;DHT22;3721;44.490;11.220;2022-10-16T15:55:22;23.90;89.70
7362;DHT22;3721;44.490;11.220;2022-10-16T15:57:47;23.60;89.40
7362;DHT22;3721;44.490;11.220;2022-10-16T16:00:16;23.90;90.00
7362;DHT22;3721;44.490;11.220;2022-10-16T16:02:43;23.90;90.00
7362;DHT22;3721;44.490;11.220;2022-10-16T16:05:10;23.90;90.00
7362;DHT22;3721;44.490;11.220;2022-10-16T16:07:37;23.80;89.90
7362;DHT22;3721;44.490;11.220;2022-10-16T16:10:05;23.80;89.90
7362;DHT22;3721;44.490;11.220;2022-10-16T16:12:32;23.80;90.00
7362;DHT22;3721;44.490;11.220;2022-10-16T16:14:58;23.80;90.00
7362;DHT22;3721;44.490;11.220;2022-10-16T16:17:23;23.70;90.00
7362;DHT22;3721;44.490;11.220;2022-10-16T16:19:50;23.70;90.10
7362;DHT22;3721;44.490;11.220;2022-10-16T16:22:16;23.70;90.10
7362;DHT22;3721;44.490;11.220;2022-10-16T16:24:41;23.70;90.10
7362;DHT22;3721;44.490;11.220;2022-10-16T16:27:07;23.60;90.10
7362;DHT22;3721;44.490;11.220;2022-10-16T16:29:33;23.60;90.20
7362;DHT22;3721;44.490;11.220;2022-10-16T16:32:00;23.60;90.20
7362;DHT22;3721;44.490;11.220;2022-10-16T16:34:27;23.60;90.50
7362;DHT22;3721;44.490;11.220;2022-10-16T16:36:54;23.50;90.20
7362;DHT22;3721;44.490;11.220;2022-10-16T16:39:21;23.50;90.30
7362;DHT22;3721;44.490;11.220;2022-10-16T16:41:47;23.50;90.30
7362;DHT22;3721;44.490;11.220;2022-10-16T16:44:14;23.50;90.30
7362;DHT22;3721;44.490;11.220;2022-10-16T16:46:40;23.50;90.40
7362;DHT22;3721;44.490;11.220;2022-10-16T16:49:12;23.40;90.40
7362;DHT22;3721;44.490;11.220;2022-10-16T16:51:38;23.40;90.40
7362;DHT22;3721;44.490;11.220;2022-10-16T16:54:05;23.40;90.50
7362;DHT22;3721;44.490;11.220;2022-10-16T16:56:32;23.40;90.50
7362;DHT22;3721;44.490;11.220;2022-10-16T16:58:57;23.30;90.50
7362;DHT22;3721;44.490;11.220;2022-10-16T17:01:25;23.30;90.40
7362;DHT22;3721;44.490;11.220;2022-10-16T17:03:54;23.30;90.40
7362;DHT22;3721;44.490;11.220;2022-10-16T17:06:22;23.20;90.40
7362;DHT22;3721;44.490;11.220;2022-10-16T17:08:49;23.20;90.40
7362;DHT22;3721;44.490;11.220;2022-10-16T17:11:19;23.20;90.50
7362;DHT22;3721;44.490;11.220;2022-10-16T17:13:45;23.20;90.50
7362;DHT22;3721;44.490;11.220;2022-10-16T17:16:11;23.10;90.60
7362;DHT22;3721;44.490;11.220;2022-10-16T17:18:37;23.10;90.60
7362;DHT22;3721;44.490;11.220;2022-10-16T17:21:05;23.10;90.60
7362;DHT22;3721;44.490;11.220;2022-10-16T17:23:32;23.10;90.70
7362;DHT22;3721;44.490;11.220;2022-10-16T17:26:06;23.00;90.70
7362;DHT22;3721;44.490;11.220;2022-10-16T17:28:32;23.00;90.70
7362;DHT22;3721;44.490;11.220;2022-10-16T17:31:16;23.00;90.80
7362;DHT22;3721;44.490;11.220;2022-10-16T17:33:43;22.90;90.80
7362;DHT22;3721;44.490;11.220;2022-10-16T17:36:09;22.90;90.90
7362;DHT22;3721;44.490;11.220;2022-10-16T17:38:36;22.90;90.90
7362;DHT22;3721;44.490;11.220;2022-10-16T17:43:39;22.80;91.10
7362;DHT22;3721;44.490;11.220;2022-10-16T17:46:06;22.70;91.10
7362;DHT22;3721;44.490;11.220;2022-10-16T17:48:39;22.70;91.10
7362;DHT22;3721;44.490;11.220;2022-10-16T17:51:07;22.70;91.20
7362;DHT22;3721;44.490;11.220;2022-10-16T17:53:34;22.60;91.30